Terminal Aerodrome Forecast
Issued by NWS Wakefield, VA

Home | Current Version | Previous Version | Text Only | Print | Product List | Glossary On
Versions: 1 2 3 4 5 6 7 8 9 10 11 12
226
FTUS41 KAKQ 240539
TAFECG
TAF
KECG 240539Z 2406/2506 VRB03KT P6SM SCT150
     FM240900 VRB03KT 4SM BR BKN060
     FM241200 VRB03KT P6SM BKN040
     FM241500 14007KT P6SM BKN250
     FM241800 14008KT P6SM SCT050
     FM250300 12004KT P6SM FEW040=

USA.gov is the U.S. government's official web portal to all federal, state and local government web resources and services.